NCAR-RAP Real-Time Weather Data

Output produced by METARs form (17 September 2019  17:06 UTC)
found at http://weather.rap.ucar.edu/surface/
 
KACT 171651Z VRB04KT 10SM BKN037 BKN046 31/20 A2998 RMK AO2 SLP145 T03110200 $
KACT 171551Z 08008KT 10SM FEW027 29/20 A3000 RMK AO2 SLP151 T02940200 $
KACT 171451Z 10005KT 10SM FEW018 28/22 A3000 RMK AO2 SLP151 T02780217 53009 $
KACT 171351Z 08004KT 10SM CLR 25/21 A2999 RMK AO2 SLP146 T02500211 $
KACT 171251Z 00000KT 10SM CLR 23/21 A2998 RMK AO2 SLP145 T02280206 $
KACT 171151Z 08004KT 10SM CLR 22/19 A2997 RMK AO2 SLP141 T02170194 10261 20217 53005 $
KACT 171051Z 07003KT 10SM CLR 22/19 A2996 RMK AO2 SLP139 T02170194 $
KACT 170951Z 10003KT 10SM CLR 23/20 A2996 RMK AO2 SLP136 T02330200 $
KACT 170851Z 00000KT 10SM CLR 23/19 A2996 RMK AO2 SLP136 T02330194 58000 $
KACT 170751Z 14006KT 10SM CLR 25/20 A2996 RMK AO2 SLP137 T02500200
KACT 170651Z 15006KT 10SM CLR 26/20 A2996 RMK AO2 SLP136 T02560200
KACT 170551Z 15006KT 10SM CLR 26/20 A2996 RMK AO2 SLP136 T02610200 10339 20261 403670217 50002
KACT 170451Z 14007KT 10SM CLR 27/19 A2997 RMK AO2 SLP138 T02720194
KACT 170351Z 13008KT 10SM CLR 28/19 A2996 RMK AO2 SLP137 T02830189
KACT 170251Z 09005KT 10SM SCT090 29/17 A2995 RMK AO2 SLP134 T02890172 53010
KACT 170051Z 10005KT 10SM CLR 31/17 A2993 RMK AO2 SLP126 T03060167
KACT 162351Z 11007KT 10SM CLR 34/16 A2992 RMK AO2 SLP125 T03390161 10367 20339 55005
KACT 162251Z 09010KT 10SM FEW080 36/16 A2992 RMK AO2 SLP124 T03560156
KACT 162151Z 08011G16KT 10SM FEW070 36/16 A2993 RMK AO2 SLP125 T03610161
KACT 162051Z 10009KT 10SM FEW070 SCT095 34/17 A2994 RMK AO2 SLP130 T03440167 57025
KACT 161951Z COR 11010KT 10SM SCT075 36/17 A2996 RMK AO2 SLP138 T03560172
KACT 161851Z COR 07010KT 10SM SCT075 36/18 A2999 RMK AO2 SLP148 T03560178